Time;durP1;ratioP1;P1;durP2;ratioP2;P2;SDS_P1;SDS_P2;PMS_P1;PMS_P2;Temp;Humidity;BMP_temperature;BMP_pressure;BME280_temperature;BME280_humidity;BME280_pressure;Samples;Min_cycle;Max_cycle;Signal;HPM_P1;HPM_P2
2023/08/07 00:00:55;;;;;;;2.33;1.20;;;10.70;99.90;;;;;;5036181;28;20731;-72
2023/08/07 00:03:21;;;;;;;1.50;1.40;;;10.70;99.90;;;;;;5036134;28;20249;-70
2023/08/07 00:05:48;;;;;;;3.07;1.40;;;10.70;99.90;;;;;;5036272;28;20601;-70
2023/08/07 00:08:15;;;;;;;4.13;1.47;;;10.70;99.90;;;;;;5036073;28;20202;-71
2023/08/07 00:10:42;;;;;;;2.93;1.53;;;10.70;99.90;;;;;;5035901;28;20202;-70
2023/08/07 00:13:10;;;;;;;2.73;1.50;;;10.70;99.90;;;;;;5035918;28;20229;-71
2023/08/07 00:15:39;;;;;;;1.67;1.57;;;10.70;99.90;;;;;;5035898;28;20253;-73
2023/08/07 00:18:06;;;;;;;1.60;1.50;;;10.70;99.90;;;;;;5035829;28;20198;-71
2023/08/07 00:20:32;;;;;;;3.73;1.60;;;10.70;99.90;;;;;;5036023;28;20198;-72
2023/08/07 00:22:59;;;;;;;1.80;1.53;;;10.70;99.90;;;;;;5035831;28;20506;-70
2023/08/07 00:25:27;;;;;;;1.57;1.40;;;10.70;99.90;;;;;;5035814;28;20260;-70
2023/08/07 00:27:53;;;;;;;1.60;1.50;;;10.70;99.90;;;;;;5035610;28;20198;-71
2023/08/07 00:30:21;;;;;;;1.60;1.50;;;10.60;99.90;;;;;;5035667;28;20198;-70
2023/08/07 00:32:48;;;;;;;2.80;1.60;;;10.60;99.90;;;;;;5035296;28;20697;-70
2023/08/07 00:35:15;;;;;;;1.70;1.60;;;10.60;99.90;;;;;;5035658;28;20202;-71
2023/08/07 00:37:41;;;;;;;2.10;1.70;;;10.60;99.90;;;;;;5035709;28;20252;-71
2023/08/07 00:40:09;;;;;;;1.70;1.60;;;10.60;99.90;;;;;;5035370;28;20260;-71
2023/08/07 00:42:36;;;;;;;3.47;1.53;;;10.60;99.90;;;;;;5035315;28;20657;-71
2023/08/07 00:45:03;;;;;;;3.30;1.70;;;10.60;99.90;;;;;;5035211;28;20210;-72
2023/08/07 00:47:31;;;;;;;3.60;1.70;;;10.60;99.90;;;;;;5034143;28;20260;-72
2023/08/07 00:49:59;;;;;;;2.80;1.90;;;10.60;99.90;;;;;;5035379;28;20202;-72
2023/08/07 00:52:26;;;;;;;3.47;2.23;;;10.60;99.90;;;;;;5035097;28;20226;-71
2023/08/07 00:54:53;;;;;;;3.13;1.67;;;10.60;99.90;;;;;;5035258;28;20624;-72
2023/08/07 00:57:22;;;;;;;2.80;1.90;;;10.60;99.90;;;;;;5035054;28;20198;-72
2023/08/07 00:59:49;;;;;;;2.97;1.90;;;10.60;99.90;;;;;;5035018;28;20221;-72
2023/08/07 01:02:16;;;;;;;4.10;2.17;;;10.50;99.90;;;;;;5035156;28;20213;-72
2023/08/07 01:04:44;;;;;;;1.70;1.60;;;10.50;99.90;;;;;;5035123;28;20253;-72
2023/08/07 01:07:11;;;;;;;2.60;1.90;;;10.50;99.90;;;;;;5035134;28;20195;-71
2023/08/07 01:09:38;;;;;;;2.87;1.80;;;10.50;99.90;;;;;;5034666;28;20804;-72
2023/08/07 01:12:13;;;;;;;3.10;2.03;;;10.60;99.90;;;;;;5034693;28;20222;-73
2023/08/07 01:14:48;;;;;;;3.30;2.50;;;10.50;99.90;;;;;;5035007;28;20251;-73
2023/08/07 01:17:17;;;;;;;2.67;1.93;;;10.50;99.90;;;;;;5034918;28;20194;-73
2023/08/07 01:19:46;;;;;;;3.17;2.10;;;10.50;99.90;;;;;;5034710;28;20264;-73
2023/08/07 01:22:15;;;;;;;3.17;2.20;;;10.50;99.90;;;;;;5034709;28;20294;-73
2023/08/07 01:24:45;;;;;;;4.27;2.23;;;10.50;99.90;;;;;;5034545;28;20198;-72
2023/08/07 01:27:24;;;;;;;2.37;2.17;;;10.50;99.90;;;;;;5034910;28;20199;-73
2023/08/07 01:29:55;;;;;;;2.57;2.27;;;10.50;99.90;;;;;;5034664;28;20194;-73
2023/08/07 01:32:26;;;;;;;2.40;2.20;;;10.50;99.90;;;;;;5034340;28;20223;-72
2023/08/07 01:34:55;;;;;;;2.93;2.30;;;10.50;99.90;;;;;;5034426;28;20203;-73
2023/08/07 01:37:24;;;;;;;3.27;2.40;;;10.50;99.90;;;;;;5034292;28;20340;-72
2023/08/07 01:39:52;;;;;;;2.73;2.43;;;10.50;99.90;;;;;;5034274;28;20230;-72
2023/08/07 01:42:19;;;;;;;4.73;2.60;;;10.50;99.90;;;;;;5034343;28;20264;-72
2023/08/07 01:44:45;;;;;;;3.70;2.90;;;10.50;99.90;;;;;;5034218;28;20206;-71
2023/08/07 01:47:12;;;;;;;4.30;3.00;;;10.50;99.90;;;;;;5034212;28;20248;-71
2023/08/07 01:49:40;;;;;;;4.27;2.90;;;10.50;99.90;;;;;;5034083;28;20340;-71
2023/08/07 01:52:08;;;;;;;3.57;2.70;;;10.50;99.90;;;;;;5034064;28;20226;-72
2023/08/07 01:54:36;;;;;;;5.33;2.80;;;10.40;99.90;;;;;;5034256;28;20225;-72
2023/08/07 01:57:03;;;;;;;5.83;3.33;;;10.40;99.90;;;;;;5033812;28;20227;-72
2023/08/07 01:59:30;;;;;;;3.50;2.70;;;10.40;99.90;;;;;;5034040;28;20206;-72
2023/08/07 02:01:56;;;;;;;4.70;3.20;;;10.40;99.90;;;;;;5033929;28;20198;-73
2023/08/07 02:04:23;;;;;;;4.67;3.00;;;10.40;99.90;;;;;;5033861;28;20272;-73
2023/08/07 02:06:49;;;;;;;4.90;3.57;;;10.40;99.90;;;;;;5033987;28;20199;-73
2023/08/07 02:09:16;;;;;;;4.97;3.40;;;10.40;99.90;;;;;;5033837;28;20272;-73
2023/08/07 02:11:44;;;;;;;8.03;3.40;;;10.40;99.90;;;;;;5033749;28;20266;-72
2023/08/07 02:14:11;;;;;;;7.67;3.80;;;10.40;99.90;;;;;;5033544;28;20233;-72
2023/08/07 02:16:38;;;;;;;5.03;3.40;;;10.40;99.90;;;;;;5033638;28;20309;-72
2023/08/07 02:19:04;;;;;;;7.73;3.33;;;10.40;99.90;;;;;;5033495;28;20218;-73
2023/08/07 02:21:31;;;;;;;7.73;4.00;;;10.40;99.90;;;;;;5033715;28;20256;-72
2023/08/07 02:23:57;;;;;;;4.97;3.73;;;10.40;99.90;;;;;;5033458;28;20722;-72
2023/08/07 02:26:24;;;;;;;4.77;3.37;;;10.40;99.90;;;;;;5033492;28;20202;-72
2023/08/07 02:28:52;;;;;;;4.43;3.60;;;10.40;99.90;;;;;;5033367;28;20198;-71
2023/08/07 02:31:19;;;;;;;5.37;3.67;;;10.40;99.90;;;;;;5033022;28;20650;-72
2023/08/07 02:33:45;;;;;;;8.43;4.00;;;10.40;99.90;;;;;;5033364;28;20230;-72
2023/08/07 02:36:12;;;;;;;5.50;3.93;;;10.40;99.90;;;;;;5033183;28;20662;-74
2023/08/07 02:38:38;;;;;;;5.00;4.30;;;10.30;99.90;;;;;;5033030;28;20277;-73
2023/08/07 02:41:05;;;;;;;4.73;4.13;;;10.30;99.90;;;;;;5033226;28;20208;-74
2023/08/07 02:43:33;;;;;;;5.93;3.70;;;10.40;99.90;;;;;;5033193;28;20732;-73
2023/08/07 02:46:01;;;;;;;6.43;4.23;;;10.30;99.90;;;;;;5032925;28;20535;-73
2023/08/07 02:48:27;;;;;;;7.87;3.80;;;10.30;99.90;;;;;;5033207;28;20202;-73
2023/08/07 02:50:54;;;;;;;5.57;3.77;;;10.30;99.90;;;;;;5033110;28;20198;-73
2023/08/07 02:53:20;;;;;;;8.40;4.47;;;10.30;99.90;;;;;;5032964;28;20226;-72
2023/08/07 02:55:47;;;;;;;6.33;3.87;;;10.30;99.90;;;;;;5033021;28;20199;-73
2023/08/07 02:58:14;;;;;;;10.03;4.30;;;10.30;99.90;;;;;;5032990;28;20194;-73
2023/08/07 03:00:40;;;;;;;6.33;3.97;;;10.30;99.90;;;;;;5032909;28;20674;-73
2023/08/07 03:03:08;;;;;;;6.67;3.80;;;10.30;99.90;;;;;;5033013;28;20248;-74
2023/08/07 03:05:35;;;;;;;8.33;4.07;;;10.30;99.90;;;;;;5032658;28;20857;-74
2023/08/07 03:08:01;;;;;;;7.03;3.70;;;10.30;99.90;;;;;;5032790;28;20198;-74
2023/08/07 03:10:28;;;;;;;5.67;3.63;;;10.30;99.90;;;;;;5032012;28;20558;-75
2023/08/07 03:12:55;;;;;;;5.57;4.23;;;10.30;99.90;;;;;;5032629;28;20257;-74
2023/08/07 03:15:21;;;;;;;7.07;3.87;;;10.30;99.90;;;;;;5032554;28;20272;-74
2023/08/07 03:17:48;;;;;;;4.13;3.73;;;10.30;99.90;;;;;;5032832;28;20204;-75
2023/08/07 03:20:16;;;;;;;5.83;4.17;;;10.30;99.90;;;;;;5032538;28;20744;-75
2023/08/07 03:22:43;;;;;;;6.60;3.67;;;10.30;99.90;;;;;;5032568;28;20612;-75
2023/08/07 03:25:10;;;;;;;8.43;3.53;;;10.30;99.90;;;;;;5032666;28;20233;-74
2023/08/07 03:27:36;;;;;;;5.53;3.97;;;10.20;99.90;;;;;;5032401;28;20206;-73
2023/08/07 03:30:04;;;;;;;8.33;4.00;;;10.20;99.90;;;;;;5032538;28;20198;-72
2023/08/07 03:32:31;;;;;;;7.10;4.10;;;10.20;99.90;;;;;;5032450;28;20285;-74
2023/08/07 03:34:57;;;;;;;9.23;4.10;;;10.20;99.90;;;;;;5032499;28;20198;-73
2023/08/07 03:37:25;;;;;;;8.37;3.83;;;10.20;99.90;;;;;;5032360;28;20654;-74
2023/08/07 03:39:52;;;;;;;4.53;3.87;;;10.20;99.90;;;;;;5032089;28;20226;-74
2023/08/07 03:42:19;;;;;;;5.30;3.93;;;10.20;99.90;;;;;;5032146;28;20198;-75
2023/08/07 03:44:45;;;;;;;6.17;3.57;;;10.20;99.90;;;;;;5032555;28;20201;-74
2023/08/07 03:47:12;;;;;;;11.17;4.70;;;10.20;99.90;;;;;;5032552;28;20241;-74
2023/08/07 03:49:38;;;;;;;9.47;4.20;;;10.10;99.90;;;;;;5032316;28;20201;-74
2023/08/07 03:52:05;;;;;;;6.43;4.00;;;10.20;99.90;;;;;;5032351;28;20198;-75
2023/08/07 03:54:33;;;;;;;4.97;3.43;;;10.20;99.90;;;;;;5032201;28;20514;-74
2023/08/07 03:57:00;;;;;;;6.67;3.67;;;10.20;99.90;;;;;;5032167;28;20201;-74
2023/08/07 03:59:27;;;;;;;7.03;4.10;;;10.20;99.90;;;;;;5032435;28;20280;-75
2023/08/07 04:01:53;;;;;;;6.53;4.57;;;10.10;99.90;;;;;;5032103;28;20558;-74
2023/08/07 04:04:20;;;;;;;5.87;4.17;;;10.10;99.90;;;;;;5032230;28;20248;-75
2023/08/07 04:06:47;;;;;;;4.40;4.00;;;10.10;99.90;;;;;;5031957;28;20195;-74
2023/08/07 04:09:13;;;;;;;8.93;3.93;;;10.10;99.90;;;;;;5032171;28;20209;-73
2023/08/07 04:11:41;;;;;;;8.13;4.70;;;10.00;99.90;;;;;;5032295;28;20256;-74
2023/08/07 04:14:08;;;;;;;7.90;4.30;;;10.00;99.90;;;;;;5032109;28;20258;-74
2023/08/07 04:16:35;;;;;;;6.77;4.50;;;10.00;99.90;;;;;;5031914;28;20539;-72
2023/08/07 04:19:01;;;;;;;9.40;5.07;;;10.00;99.90;;;;;;5032197;28;20627;-73
2023/08/07 04:21:28;;;;;;;7.70;5.57;;;10.00;99.90;;;;;;5033979;28;20205;-73
2023/08/07 04:23:54;;;;;;;7.43;4.67;;;10.00;99.90;;;;;;5035678;28;20198;-74
2023/08/07 04:26:21;;;;;;;7.70;4.93;;;10.00;99.90;;;;;;5035687;28;20207;-75
2023/08/07 04:28:49;;;;;;;7.93;4.97;;;10.00;99.90;;;;;;5035546;28;20256;-75
2023/08/07 04:31:16;;;;;;;9.43;4.90;;;10.00;99.90;;;;;;5035548;28;20194;-76
2023/08/07 04:33:42;;;;;;;7.87;5.00;;;10.00;99.90;;;;;;5035509;28;20226;-76
2023/08/07 04:36:09;;;;;;;5.50;4.93;;;10.10;99.90;;;;;;5035378;28;20673;-76
2023/08/07 04:38:36;;;;;;;12.80;5.20;;;10.00;99.90;;;;;;5035240;28;20268;-74
2023/08/07 04:41:03;;;;;;;11.17;4.70;;;10.00;99.90;;;;;;5035535;28;20195;-74
2023/08/07 04:43:30;;;;;;;14.77;5.47;;;10.00;99.90;;;;;;5035539;28;20210;-75
2023/08/07 04:45:57;;;;;;;6.53;4.83;;;10.00;99.90;;;;;;5035508;28;20210;-75
2023/08/07 04:48:25;;;;;;;9.77;5.50;;;10.00;99.90;;;;;;5035336;28;20198;-75
2023/08/07 04:50:52;;;;;;;8.97;5.30;;;10.00;99.90;;;;;;5035273;28;20195;-76
2023/08/07 04:53:19;;;;;;;10.27;4.77;;;10.00;99.90;;;;;;5035307;28;20292;-76
2023/08/07 04:55:45;;;;;;;15.50;6.10;;;10.00;99.90;;;;;;5035238;28;20659;-75
2023/08/07 04:58:12;;;;;;;9.80;5.13;;;10.00;99.90;;;;;;5035088;28;20198;-76
2023/08/07 05:00:38;;;;;;;12.60;5.43;;;10.00;99.90;;;;;;5035110;28;20268;-75
2023/08/07 05:03:06;;;;;;;7.97;5.23;;;10.00;99.90;;;;;;5035001;28;20198;-75
2023/08/07 05:05:33;;;;;;;10.93;5.23;;;10.00;99.90;;;;;;5034803;28;20203;-75
2023/08/07 05:08:00;;;;;;;9.83;5.47;;;10.00;99.90;;;;;;5034919;28;20198;-76
2023/08/07 05:10:26;;;;;;;10.67;5.50;;;10.00;99.90;;;;;;5034870;28;20202;-77
2023/08/07 05:12:55;;;;;;;11.30;5.50;;;10.00;99.90;;;;;;5039185;28;20198;-77
2023/08/07 05:15:22;;;;;;;9.00;4.97;;;10.00;99.90;;;;;;5034729;28;20772;-77
2023/08/07 05:17:48;;;;;;;6.10;4.93;;;10.00;99.90;;;;;;5034772;28;20206;-76
2023/08/07 05:20:16;;;;;;;10.73;6.17;;;10.00;99.90;;;;;;5035014;28;20222;-75
2023/08/07 05:22:43;;;;;;;9.23;5.57;;;9.90;99.90;;;;;;5034390;28;20237;-76
2023/08/07 05:25:11;;;;;;;10.40;5.60;;;9.90;99.90;;;;;;5034630;28;20657;-76
2023/08/07 05:27:37;;;;;;;12.23;5.40;;;9.90;99.90;;;;;;5034488;28;20209;-76
2023/08/07 05:30:05;;;;;;;7.80;5.33;;;10.00;99.90;;;;;;5034545;28;20202;-76
2023/08/07 05:32:32;;;;;;;8.23;5.43;;;10.00;99.90;;;;;;5033760;28;20198;-75
2023/08/07 05:34:59;;;;;;;11.47;5.57;;;10.00;99.90;;;;;;5034426;28;20226;-75
2023/08/07 05:37:29;;;;;;;12.10;5.60;;;10.00;99.90;;;;;;5034385;28;20589;-76
2023/08/07 05:39:56;;;;;;;6.07;4.97;;;10.00;99.90;;;;;;5034172;28;20237;-75
2023/08/07 05:42:22;;;;;;;9.20;5.23;;;10.00;99.90;;;;;;5034252;28;20550;-75
2023/08/07 05:44:49;;;;;;;6.10;4.70;;;10.00;99.90;;;;;;5034237;28;20209;-75
2023/08/07 05:47:16;;;;;;;8.10;5.07;;;9.90;99.90;;;;;;5034069;28;20194;-76
2023/08/07 05:49:42;;;;;;;6.97;5.00;;;10.00;99.90;;;;;;5034136;28;20206;-76
2023/08/07 05:52:09;;;;;;;9.87;5.13;;;9.90;99.90;;;;;;5034103;28;20198;-76
2023/08/07 05:54:37;;;;;;;6.50;5.00;;;10.00;99.90;;;;;;5033978;28;20307;-74
2023/08/07 05:57:04;;;;;;;11.10;5.07;;;10.00;99.90;;;;;;5033911;28;20256;-76
2023/08/07 05:59:31;;;;;;;7.47;4.47;;;10.00;99.90;;;;;;5033928;28;20202;-75
2023/08/07 06:01:58;;;;;;;6.53;4.47;;;10.00;99.90;;;;;;5034001;28;20197;-76
2023/08/07 06:04:24;;;;;;;6.03;4.30;;;10.00;99.90;;;;;;5033968;28;20233;-76
2023/08/07 06:06:51;;;;;;;7.77;4.67;;;10.10;99.90;;;;;;5034007;28;20237;-76
2023/08/07 06:09:17;;;;;;;9.77;4.77;;;10.10;99.90;;;;;;5033993;28;20247;-76
2023/08/07 06:11:45;;;;;;;9.57;4.70;;;10.10;99.90;;;;;;5033799;28;20251;-75
2023/08/07 06:14:12;;;;;;;5.83;4.43;;;10.10;99.90;;;;;;5033532;28;20226;-75
2023/08/07 06:16:39;;;;;;;7.10;4.57;;;10.10;99.90;;;;;;5033811;28;20257;-76
2023/08/07 06:19:05;;;;;;;7.57;4.63;;;10.10;99.90;;;;;;5033624;28;20194;-75
2023/08/07 06:21:32;;;;;;;8.77;4.93;;;10.10;99.90;;;;;;5033833;28;20202;-76
2023/08/07 06:23:59;;;;;;;8.43;5.03;;;10.20;99.90;;;;;;5033548;28;20297;-75
2023/08/07 06:26:26;;;;;;;7.07;5.00;;;10.20;99.90;;;;;;5033460;28;20319;-75
2023/08/07 06:28:54;;;;;;;9.10;4.90;;;10.20;99.90;;;;;;5033489;28;20720;-75
2023/08/07 06:31:20;;;;;;;5.70;4.30;;;10.30;99.90;;;;;;5033712;28;20260;-75
2023/08/07 06:33:47;;;;;;;6.03;4.30;;;10.30;99.90;;;;;;5033138;28;20892;-76
2023/08/07 06:36:14;;;;;;;10.83;4.90;;;10.30;99.90;;;;;;5033676;28;20245;-78
2023/08/07 06:38:40;;;;;;;7.47;4.37;;;10.30;99.90;;;;;;5032929;28;20203;-80
2023/08/07 06:41:07;;;;;;;7.10;4.10;;;10.30;99.90;;;;;;5033611;28;20331;-79
2023/08/07 06:43:33;;;;;;;7.50;4.30;;;10.30;99.90;;;;;;5033653;28;20252;-80
2023/08/07 06:46:01;;;;;;;8.83;4.63;;;10.30;99.90;;;;;;5033290;28;20248;-78
2023/08/07 06:48:28;;;;;;;6.27;4.13;;;10.40;99.90;;;;;;5033027;28;20206;-77
2023/08/07 06:50:54;;;;;;;5.57;4.00;;;10.40;99.90;;;;;;5033290;28;20199;-80
2023/08/07 06:53:21;;;;;;;6.00;4.00;;;10.40;99.90;;;;;;5033279;28;20252;-81
2023/08/07 06:55:48;;;;;;;5.97;4.17;;;10.40;99.90;;;;;;5033063;28;20300;-78
2023/08/07 06:58:14;;;;;;;6.83;4.27;;;10.50;99.90;;;;;;5033465;28;20203;-78
2023/08/07 07:00:41;;;;;;;4.43;4.00;;;10.40;99.90;;;;;;5033320;28;20268;-80
2023/08/07 07:03:10;;;;;;;5.87;4.33;;;10.50;99.90;;;;;;5033722;28;20283;-81
2023/08/07 07:05:36;;;;;;;6.13;3.87;;;10.40;99.90;;;;;;5033009;28;20202;-81
2023/08/07 07:08:03;;;;;;;7.43;4.13;;;10.50;99.90;;;;;;5033011;28;20206;-78
2023/08/07 07:10:30;;;;;;;7.03;3.90;;;10.40;99.90;;;;;;5032592;28;20225;-76
2023/08/07 07:12:57;;;;;;;8.10;3.90;;;10.50;99.90;;;;;;5033023;28;20202;-80
2023/08/07 07:15:23;;;;;;;6.37;3.97;;;10.50;99.90;;;;;;5048251;28;20696;-77
2023/08/07 07:17:50;;;;;;;7.33;4.30;;;10.50;99.90;;;;;;5052817;28;20251;-80
2023/08/07 07:20:18;;;;;;;4.93;3.60;;;10.50;99.90;;;;;;5053630;28;20204;-81
2023/08/07 07:22:45;;;;;;;4.90;3.60;;;10.60;99.90;;;;;;5052662;28;20194;-80
2023/08/07 07:25:11;;;;;;;6.00;3.77;;;10.70;99.90;;;;;;5052565;28;20255;-81
2023/08/07 07:27:39;;;;;;;6.60;3.67;;;10.60;99.90;;;;;;5052736;28;20658;-78
2023/08/07 07:30:07;;;;;;;4.30;3.37;;;10.60;99.90;;;;;;5040727;28;20199;-81
2023/08/07 07:32:34;;;;;;;4.57;3.47;;;10.60;99.90;;;;;;5033114;28;20198;-80
2023/08/07 07:35:01;;;;;;;5.50;3.53;;;10.70;99.90;;;;;;5032683;28;20276;-80
2023/08/07 07:37:29;;;;;;;6.17;3.70;;;10.70;99.90;;;;;;5033050;28;20194;-82
2023/08/07 07:39:55;;;;;;;4.60;3.50;;;10.70;99.90;;;;;;5033037;28;20284;-82
2023/08/07 07:42:22;;;;;;;6.00;4.07;;;10.70;99.90;;;;;;5034053;28;20251;-79
2023/08/07 07:44:49;;;;;;;4.40;3.73;;;10.80;99.90;;;;;;5035868;28;20595;-82
2023/08/07 07:47:15;;;;;;;6.83;4.10;;;10.80;99.90;;;;;;5046131;28;20197;-83
2023/08/07 07:49:47;;;;;;;5.70;3.53;;;10.90;99.90;;;;;;5046261;28;20264;-83
2023/08/07 07:52:14;;;;;;;5.27;3.47;;;10.90;99.90;;;;;;5033552;28;20198;-83
2023/08/07 07:54:41;;;;;;;5.93;3.77;;;10.80;99.90;;;;;;5033497;28;20226;-83
2023/08/07 07:57:08;;;;;;;9.30;3.90;;;10.80;99.90;;;;;;5037029;28;20198;-84
2023/08/07 07:59:35;;;;;;;4.10;3.23;;;10.90;99.90;;;;;;5037874;28;20202;-83
2023/08/07 08:02:02;;;;;;;7.87;4.40;;;10.80;99.90;;;;;;5037193;28;20202;-84
2023/08/07 08:04:28;;;;;;;7.47;4.10;;;10.80;99.90;;;;;;5041798;28;20549;-84
2023/08/07 08:06:55;;;;;;;7.33;3.67;;;10.80;99.90;;;;;;5057599;28;20205;-84
2023/08/07 08:09:21;;;;;;;5.77;3.93;;;10.80;99.90;;;;;;5057738;28;20205;-85
2023/08/07 08:11:49;;;;;;;5.90;3.37;;;10.80;99.90;;;;;;5057662;28;20198;-85
2023/08/07 08:14:16;;;;;;;6.13;3.90;;;10.80;99.90;;;;;;5055050;28;20339;-85
2023/08/07 08:16:43;;;;;;;5.97;3.80;;;10.90;99.90;;;;;;5046130;28;20275;-84
2023/08/07 08:19:10;;;;;;;6.60;4.07;;;10.80;99.90;;;;;;5055199;28;20205;-82
2023/08/07 08:21:36;;;;;;;6.77;3.83;;;10.90;99.90;;;;;;5036412;28;20233;-83
2023/08/07 08:24:04;;;;;;;6.17;4.03;;;10.90;99.90;;;;;;5036671;28;20234;-82
2023/08/07 08:26:30;;;;;;;7.53;4.00;;;10.90;99.90;;;;;;5055845;28;20225;-82
2023/08/07 08:28:58;;;;;;;7.03;4.10;;;10.90;99.90;;;;;;5056288;28;20267;-82
2023/08/07 08:31:25;;;;;;;5.23;3.70;;;11.00;99.90;;;;;;5037067;28;20195;-81
2023/08/07 08:33:52;;;;;;;7.60;3.93;;;11.00;99.90;;;;;;5035961;28;20277;-81
2023/08/07 08:36:18;;;;;;;5.27;4.00;;;11.00;99.90;;;;;;5035994;28;20230;-80
2023/08/07 08:38:48;;;;;;;8.43;4.27;;;11.00;99.90;;;;;;5038387;28;20230;-82
2023/08/07 08:41:14;;;;;;;8.40;4.30;;;11.00;99.90;;;;;;5038893;28;20613;-81
2023/08/07 08:43:43;;;;;;;7.37;4.40;;;11.00;99.90;;;;;;5036281;28;20261;-83
2023/08/07 08:46:15;;;;;;;8.00;4.30;;;11.00;99.90;;;;;;5051823;28;20251;-81
2023/08/07 08:48:42;;;;;;;6.33;4.13;;;11.00;99.90;;;;;;5055949;28;20260;-81
2023/08/07 08:51:11;;;;;;;6.00;4.17;;;11.00;99.90;;;;;;5040661;28;20240;-84
2023/08/07 08:53:38;;;;;;;5.90;3.83;;;11.00;99.90;;;;;;5036121;28;20203;-82
2023/08/07 08:56:06;;;;;;;6.83;3.60;;;11.00;99.90;;;;;;5050361;28;20778;-84
2023/08/07 08:58:34;;;;;;;5.23;3.80;;;11.10;99.90;;;;;;5056129;28;20202;-83
2023/08/07 09:01:01;;;;;;;7.47;3.80;;;11.10;99.90;;;;;;5055487;28;20199;-83
2023/08/07 09:03:29;;;;;;;5.23;3.30;;;11.20;99.90;;;;;;5055692;28;20605;-83
2023/08/07 09:06:00;;;;;;;4.47;3.60;;;11.10;99.90;;;;;;5055415;28;20194;-83
2023/08/07 09:08:29;;;;;;;6.17;3.20;;;11.10;99.90;;;;;;5054316;28;20608;-83
2023/08/07 09:10:56;;;;;;;3.50;3.20;;;11.00;99.90;;;;;;5054844;28;20283;-83
2023/08/07 09:13:24;;;;;;;4.70;3.10;;;11.00;99.90;;;;;;5055037;28;20194;-82
2023/08/07 09:15:52;;;;;;;5.60;4.13;;;11.00;99.90;;;;;;5054968;28;20275;-82
2023/08/07 09:18:19;;;;;;;7.13;4.23;;;11.00;99.90;;;;;;5055569;28;20197;-82
2023/08/07 09:20:48;;;;;;;4.97;3.73;;;11.10;99.90;;;;;;5058171;28;20209;-83
2023/08/07 09:23:17;;;;;;;4.93;3.40;;;11.10;99.90;;;;;;5063762;28;20441;-83
2023/08/07 09:25:44;;;;;;;4.60;3.83;;;11.10;99.90;;;;;;5065998;28;20253;-83
2023/08/07 09:28:10;;;;;;;5.87;3.53;;;11.10;99.90;;;;;;5054513;28;20202;-82
2023/08/07 09:30:38;;;;;;;5.97;4.20;;;11.10;99.90;;;;;;5045248;28;20743;-81
2023/08/07 09:33:05;;;;;;;6.00;3.90;;;11.10;99.90;;;;;;5034430;28;20204;-81
2023/08/07 09:35:33;;;;;;;6.00;4.23;;;11.10;99.90;;;;;;5042095;28;20222;-82
2023/08/07 09:38:02;;;;;;;4.23;3.83;;;11.10;99.90;;;;;;5054150;28;20251;-83
2023/08/07 09:40:30;;;;;;;5.77;3.80;;;11.10;99.90;;;;;;5053837;28;20229;-80
2023/08/07 09:42:57;;;;;;;6.03;3.80;;;11.10;99.90;;;;;;5054196;28;20664;-80
2023/08/07 09:45:25;;;;;;;4.13;3.73;;;11.10;99.90;;;;;;5053699;28;20223;-80
2023/08/07 09:47:59;;;;;;;6.43;4.47;;;11.10;99.90;;;;;;5053833;28;20653;-78
2023/08/07 09:50:26;;;;;;;5.27;3.60;;;11.10;99.90;;;;;;5053769;28;20186;-80
2023/08/07 09:52:53;;;;;;;8.90;4.27;;;11.00;99.90;;;;;;5053794;28;20198;-78
2023/08/07 09:55:21;;;;;;;6.70;4.33;;;11.10;99.90;;;;;;5053556;28;20586;-78
2023/08/07 09:57:49;;;;;;;5.43;3.93;;;11.10;99.90;;;;;;5053921;28;20198;-78
2023/08/07 10:00:19;;;;;;;4.23;3.70;;;11.10;99.90;;;;;;5053146;28;20216;-76
2023/08/07 10:02:47;;;;;;;4.83;3.70;;;11.00;99.90;;;;;;5053580;28;20202;-79
2023/08/07 10:05:14;;;;;;;5.80;3.60;;;10.90;99.90;;;;;;5053091;28;20190;-77
2023/08/07 10:07:42;;;;;;;7.83;4.27;;;10.90;99.90;;;;;;5053082;28;20201;-75
2023/08/07 10:10:10;;;;;;;6.10;4.20;;;10.90;99.90;;;;;;5053266;28;20257;-75
2023/08/07 10:12:38;;;;;;;5.47;3.93;;;10.90;99.90;;;;;;5053524;28;20293;-76
2023/08/07 10:15:06;;;;;;;5.00;4.03;;;11.00;99.90;;;;;;5053204;28;20306;-75
2023/08/07 10:17:33;;;;;;;6.17;4.43;;;11.00;99.90;;;;;;5053193;28;20208;-75
2023/08/07 10:20:00;;;;;;;5.03;3.80;;;11.10;99.90;;;;;;5052379;28;20202;-75
2023/08/07 10:22:30;;;;;;;7.33;4.33;;;11.30;99.90;;;;;;5053370;28;20201;-77
2023/08/07 10:24:59;;;;;;;7.60;4.10;;;11.40;99.90;;;;;;5053193;28;20252;-76
2023/08/07 10:27:28;;;;;;;6.60;4.00;;;11.50;99.90;;;;;;5053111;28;20653;-76
2023/08/07 10:29:58;;;;;;;5.20;3.63;;;11.60;99.90;;;;;;5053028;28;20198;-77
2023/08/07 10:32:26;;;;;;;6.07;3.80;;;11.50;99.90;;;;;;5052773;28;20562;-76
2023/08/07 10:34:53;;;;;;;5.50;3.97;;;11.60;99.90;;;;;;5053186;28;20210;-77
2023/08/07 10:37:39;;;;;;;5.63;3.57;;;11.70;99.90;;;;;;5053262;28;20236;-77
2023/08/07 10:40:09;;;;;;;5.47;3.50;;;11.70;99.90;;;;;;5052445;28;20229;-78
2023/08/07 10:43:00;;;;;;;4.13;3.37;;;11.80;99.90;;;;;;5053154;28;20293;-78
2023/08/07 10:45:29;;;;;;;6.13;3.07;;;11.80;99.90;;;;;;5053389;28;20240;-78
2023/08/07 10:48:03;;;;;;;3.77;3.40;;;11.80;99.90;;;;;;5053292;28;20205;-79
2023/08/07 10:50:32;;;;;;;4.40;3.20;;;11.90;99.90;;;;;;5053130;28;20207;-80
2023/08/07 10:53:01;;;;;;;3.17;2.70;;;12.00;99.90;;;;;;5052899;28;20248;-79
2023/08/07 10:55:31;;;;;;;7.03;3.60;;;12.00;99.90;;;;;;5052829;28;20225;-79
2023/08/07 10:57:58;;;;;;;6.57;3.10;;;12.00;99.90;;;;;;5053133;28;20204;-79
2023/08/07 11:00:28;;;;;;;6.10;3.23;;;12.00;99.90;;;;;;5052986;28;20194;-80
2023/08/07 11:02:58;;;;;;;5.40;3.27;;;12.30;99.90;;;;;;5052951;28;20204;-80
2023/08/07 11:05:25;;;;;;;3.63;3.13;;;12.50;99.90;;;;;;5052667;28;20197;-72
2023/08/07 11:07:54;;;;;;;5.10;2.80;;;12.60;99.90;;;;;;5052941;28;20201;-81
2023/08/07 11:10:21;;;;;;;5.63;2.90;;;12.60;99.90;;;;;;5055305;28;20205;-84
2023/08/07 11:12:49;;;;;;;4.80;2.70;;;12.70;99.90;;;;;;5053428;28;20640;-83
2023/08/07 11:15:15;;;;;;;4.50;2.90;;;12.70;99.90;;;;;;5052607;28;20562;-78
2023/08/07 11:17:46;;;;;;;4.40;3.30;;;12.80;99.90;;;;;;5052639;28;20193;-77
2023/08/07 11:20:12;;;;;;;4.07;3.20;;;12.40;99.90;;;;;;5052588;28;20197;-76
2023/08/07 11:22:41;;;;;;;3.67;3.00;;;12.30;99.90;;;;;;5052205;28;20201;-75
2023/08/07 11:25:12;;;;;;;3.80;3.10;;;12.30;99.90;;;;;;5053015;28;20200;-76
2023/08/07 11:27:38;;;;;;;3.90;3.23;;;12.10;99.90;;;;;;5052805;28;20376;-77
2023/08/07 11:30:06;;;;;;;7.47;3.57;;;12.10;99.90;;;;;;5051980;28;20343;-78
2023/08/07 11:32:33;;;;;;;3.80;3.40;;;12.30;99.90;;;;;;5052387;28;20266;-79
2023/08/07 11:35:03;;;;;;;5.00;3.73;;;12.30;99.90;;;;;;5052405;28;20259;-77
2023/08/07 11:37:29;;;;;;;6.47;3.67;;;12.20;99.90;;;;;;5051087;28;20204;-81
2023/08/07 11:40:02;;;;;;;4.90;3.70;;;11.90;99.90;;;;;;5052529;28;20621;-79
2023/08/07 11:42:29;;;;;;;4.57;3.60;;;11.80;99.90;;;;;;5052421;28;20201;-84
2023/08/07 11:44:55;;;;;;;7.43;4.53;;;11.80;99.90;;;;;;5052755;28;20247;-80
2023/08/07 11:47:22;;;;;;;6.73;4.50;;;11.90;99.90;;;;;;5052277;28;20647;-78
2023/08/07 11:49:49;;;;;;;8.50;4.50;;;11.90;99.90;;;;;;5052494;28;20205;-77
2023/08/07 11:52:17;;;;;;;6.40;4.10;;;12.00;99.90;;;;;;5052526;28;20205;-78
2023/08/07 11:54:48;;;;;;;7.13;3.70;;;12.10;99.90;;;;;;5052524;28;20260;-81
2023/08/07 11:57:18;;;;;;;4.30;3.50;;;12.20;99.90;;;;;;5052306;28;20232;-79
2023/08/07 11:59:50;;;;;;;5.40;3.00;;;12.20;99.90;;;;;;5052464;28;20264;-79
2023/08/07 12:02:17;;;;;;;5.90;3.23;;;12.40;99.90;;;;;;5052145;28;20248;-76
2023/08/07 12:04:44;;;;;;;5.00;3.37;;;12.50;99.90;;;;;;5052591;28;20243;-78
2023/08/07 12:07:11;;;;;;;3.33;2.63;;;12.60;99.90;;;;;;5052198;28;20723;-79
2023/08/07 12:09:39;;;;;;;4.87;3.27;;;12.80;99.90;;;;;;5051777;28;20198;-79
2023/08/07 12:12:07;;;;;;;3.97;3.17;;;12.90;99.90;;;;;;5052225;28;20197;-78
2023/08/07 12:14:34;;;;;;;3.10;2.80;;;13.10;99.90;;;;;;5051894;28;20197;-78
2023/08/07 12:17:03;;;;;;;4.20;2.97;;;13.00;99.90;;;;;;5052176;28;20229;-76
2023/08/07 12:19:42;;;;;;;4.70;2.90;;;13.30;99.90;;;;;;5052176;28;20197;-75
2023/08/07 12:22:11;;;;;;;3.60;2.90;;;12.80;99.90;;;;;;5052317;28;20194;-78
2023/08/07 12:24:41;;;;;;;3.00;2.63;;;13.00;99.90;;;;;;5053138;28;20205;-78
2023/08/07 12:27:08;;;;;;;4.60;3.10;;;12.80;99.90;;;;;;5050263;28;20727;-78
2023/08/07 12:29:35;;;;;;;4.20;2.73;;;12.80;99.90;;;;;;5049806;28;20271;-79
2023/08/07 12:32:02;;;;;;;5.40;3.27;;;12.70;99.90;;;;;;5050418;28;20499;-77
2023/08/07 12:34:29;;;;;;;4.43;3.00;;;12.70;99.90;;;;;;5050812;28;20288;-79
2023/08/07 12:36:55;;;;;;;4.10;3.30;;;12.70;99.90;;;;;;5049694;28;20233;-75
2023/08/07 12:39:22;;;;;;;4.20;3.10;;;12.70;99.90;;;;;;5048848;28;20230;-75
2023/08/07 12:41:50;;;;;;;3.90;3.50;;;12.40;99.90;;;;;;5036300;28;20206;-76
2023/08/07 12:44:16;;;;;;;6.53;3.43;;;12.60;99.90;;;;;;5033276;28;20269;-75
2023/08/07 12:46:43;;;;;;;4.27;3.73;;;12.20;99.90;;;;;;5033105;28;20248;-75